createdAt,value
2022-08-11T00:00:58.218Z,1.45
2022-08-11T00:02:01.344Z,1.52
2022-08-11T00:03:08.078Z,1.40
2022-08-11T00:04:17.950Z,1.25
2022-08-11T00:05:26.089Z,1.30
2022-08-11T00:06:37.096Z,1.27
2022-08-11T00:07:49.995Z,1.40
2022-08-11T00:08:54.127Z,1.30
2022-08-11T00:09:57.536Z,1.52
2022-08-11T00:11:04.042Z,1.50
2022-08-11T00:12:14.843Z,1.40
2022-08-11T00:13:18.527Z,1.42
2022-08-11T00:14:37.035Z,1.52
2022-08-11T00:15:45.768Z,1.37
2022-08-11T00:17:00.123Z,1.30
2022-08-11T00:18:03.587Z,1.25
2022-08-11T00:19:06.522Z,1.35
2022-08-11T00:20:16.694Z,1.60
2022-08-11T00:21:32.537Z,1.77
2022-08-11T00:22:47.737Z,1.30
2022-08-11T00:23:57.198Z,1.30
2022-08-11T00:25:09.146Z,1.52
2022-08-11T00:26:13.553Z,1.40
2022-08-11T00:27:16.272Z,1.33
2022-08-11T00:28:37.222Z,1.12
2022-08-11T00:29:51.842Z,1.33
2022-08-11T00:30:57.806Z,1.20
2022-08-11T00:32:03.440Z,1.20
2022-08-11T00:33:07.344Z,1.17
2022-08-11T00:34:12.667Z,1.10
2022-08-11T00:35:54.864Z,1.50
2022-08-11T00:36:47.547Z,1.37
2022-08-11T00:37:56.208Z,1.17
2022-08-11T00:39:05.925Z,1.25
2022-08-11T00:40:18.842Z,1.52
2022-08-11T00:41:42.798Z,1.30
2022-08-11T00:43:07.247Z,1.20
2022-08-11T00:44:41.213Z,1.17
2022-08-11T00:46:06.941Z,1.25
2022-08-11T00:47:28.352Z,1.40
2022-08-11T00:49:09.683Z,1.20
2022-08-11T00:51:12.590Z,1.20
2022-08-11T00:52:48.807Z,1.10
2022-08-11T00:54:03.339Z,1.10
2022-08-11T00:55:36.594Z,1.20
2022-08-11T00:56:42.355Z,1.05
2022-08-11T00:57:54.700Z,1.33
2022-08-11T00:59:34.214Z,1.20
2022-08-11T01:01:05.354Z,1.30
2022-08-11T01:02:33.144Z,1.33
2022-08-11T01:04:12.770Z,1.37
2022-08-11T01:05:43.116Z,1.35
2022-08-11T01:08:01.222Z,1.10
2022-08-11T01:09:36.095Z,1.27
2022-08-11T01:10:53.451Z,1.40
2022-08-11T01:12:21.397Z,1.40
2022-08-11T01:13:31.040Z,1.10
2022-08-11T01:15:16.724Z,1.30
2022-08-11T01:16:58.418Z,1.23
2022-08-11T01:18:55.297Z,1.25
2022-08-11T01:20:47.246Z,1.37
2022-08-11T01:22:20.667Z,1.40
2022-08-11T01:23:43.027Z,1.23
2022-08-11T01:25:08.925Z,1.33
2022-08-11T01:26:49.787Z,1.08
2022-08-11T01:28:15.995Z,1.37
2022-08-11T01:29:49.267Z,1.30
2022-08-11T01:31:24.478Z,1.20
2022-08-11T01:33:05.083Z,1.10
2022-08-11T01:34:33.841Z,1.33
2022-08-11T01:36:02.589Z,1.30
2022-08-11T01:37:37.005Z,1.30
2022-08-11T01:39:02.445Z,1.15
2022-08-11T01:40:18.741Z,1.12
2022-08-11T01:42:01.720Z,1.30
2022-08-11T01:43:48.607Z,1.25
2022-08-11T01:45:18.110Z,1.48
2022-08-11T01:46:51.293Z,1.25
2022-08-11T01:48:23.413Z,1.48
2022-08-11T01:50:08.488Z,1.30
2022-08-11T01:51:39.876Z,1.30
2022-08-11T01:53:08.613Z,1.15
2022-08-11T01:54:31.922Z,1.37
2022-08-11T01:56:14.109Z,1.35
2022-08-11T01:57:27.956Z,1.40
2022-08-11T01:58:47.393Z,1.40
2022-08-11T02:00:09.732Z,1.30
2022-08-11T02:01:21.391Z,1.30
2022-08-11T02:02:54.662Z,1.25
2022-08-11T02:04:07.811Z,1.33
2022-08-11T02:05:21.150Z,1.15
2022-08-11T02:06:51.451Z,1.17
2022-08-11T02:08:33.796Z,1.40
2022-08-11T02:10:36.352Z,1.20
2022-08-11T02:11:48.258Z,1.27
2022-08-11T02:13:01.204Z,1.15
2022-08-11T02:14:25.928Z,1.33
2022-08-11T02:15:57.542Z,1.15
2022-08-11T02:17:20.210Z,1.33
2022-08-11T02:18:53.924Z,1.30
2022-08-11T02:20:34.829Z,1.40
2022-08-11T02:22:31.221Z,1.27
2022-08-11T02:24:05.420Z,1.25
2022-08-11T02:25:52.328Z,1.37
2022-08-11T02:27:24.582Z,1.00
2022-08-11T02:28:40.261Z,1.40
2022-08-11T02:30:08.134Z,1.12
2022-08-11T02:32:15.804Z,1.20
2022-08-11T02:33:36.490Z,1.20
2022-08-11T02:35:21.018Z,1.25
2022-08-11T02:36:37.674Z,1.25
2022-08-11T02:37:51.153Z,1.20
2022-08-11T02:39:10.387Z,1.20
2022-08-11T02:40:25.972Z,1.33
2022-08-11T02:41:59.536Z,1.20
2022-08-11T02:43:08.432Z,1.30
2022-08-11T02:44:35.486Z,1.40
2022-08-11T02:46:19.040Z,1.23
2022-08-11T02:48:18.262Z,1.20
2022-08-11T02:50:06.318Z,1.30
2022-08-11T02:51:23.182Z,1.20
2022-08-11T02:52:39.566Z,1.30
2022-08-11T02:53:58.598Z,1.17
2022-08-11T02:55:56.051Z,1.15
2022-08-11T02:57:43.231Z,1.02
2022-08-11T02:59:18.980Z,1.30
2022-08-11T03:00:23.465Z,1.15
2022-08-11T03:01:44.612Z,1.17
2022-08-11T03:02:56.199Z,1.20
2022-08-11T03:05:17.884Z,1.27
2022-08-11T03:06:34.656Z,1.17
2022-08-11T03:07:41.213Z,1.20
2022-08-11T03:08:55.082Z,1.30
2022-08-11T03:10:13.816Z,1.20
2022-08-11T03:11:58.105Z,1.23
2022-08-11T03:13:41.885Z,1.27
2022-08-11T03:15:20.992Z,1.20
2022-08-11T03:16:48.517Z,1.27
2022-08-11T03:18:25.601Z,1.27
2022-08-11T03:20:00.283Z,1.23
2022-08-11T03:21:20.826Z,1.20
2022-08-11T03:22:48.484Z,1.00
2022-08-11T03:24:03.711Z,1.02
2022-08-11T03:25:18.480Z,1.20
2022-08-11T03:26:33.302Z,1.02
2022-08-11T03:28:29.437Z,1.12
2022-08-11T03:29:41.032Z,0.95
2022-08-11T03:32:07.777Z,1.05
2022-08-11T03:33:41.168Z,1.25
2022-08-11T03:34:46.758Z,1.08
2022-08-11T03:36:28.391Z,1.30
2022-08-11T03:37:52.039Z,1.20
2022-08-11T03:39:03.893Z,1.20
2022-08-11T03:40:09.550Z,1.20
2022-08-11T03:42:02.367Z,1.15
2022-08-11T03:43:27.090Z,1.20
2022-08-11T03:44:56.040Z,1.20
2022-08-11T03:46:08.204Z,1.10
2022-08-11T03:47:30.077Z,1.48
2022-08-11T03:49:00.577Z,1.30
2022-08-11T03:50:09.054Z,1.20
2022-08-11T03:51:51.516Z,1.50
2022-08-11T03:53:28.354Z,0.93
2022-08-11T03:54:49.652Z,1.15
2022-08-11T03:56:35.567Z,1.25
2022-08-11T03:57:56.907Z,1.20
2022-08-11T03:59:24.208Z,1.10
2022-08-11T04:01:06.032Z,1.45
2022-08-11T04:02:36.358Z,1.20
2022-08-11T04:04:20.669Z,1.40
2022-08-11T04:06:02.675Z,1.00
2022-08-11T04:07:19.315Z,1.10
2022-08-11T04:09:00.409Z,1.20
2022-08-11T04:10:48.086Z,1.12
2022-08-11T04:12:09.492Z,1.20
2022-08-11T04:13:51.113Z,1.40
2022-08-11T04:15:36.744Z,1.12
2022-08-11T04:17:05.136Z,1.10
2022-08-11T04:18:32.785Z,1.10
2022-08-11T04:20:19.050Z,1.17
2022-08-11T04:21:59.574Z,1.27
2022-08-11T04:24:37.066Z,0.93
2022-08-11T04:24:59.342Z,1.30
2022-08-11T04:26:34.213Z,1.20
2022-08-11T04:27:59.065Z,1.10
2022-08-11T04:29:18.278Z,1.10
2022-08-11T04:30:26.900Z,1.37
2022-08-11T04:31:51.133Z,1.20
2022-08-11T04:33:35.248Z,1.30
2022-08-11T04:35:20.529Z,1.00
2022-08-11T04:37:02.995Z,1.00
2022-08-11T04:38:24.556Z,1.20
2022-08-11T04:39:49.436Z,0.90
2022-08-11T04:41:15.373Z,1.10
2022-08-11T04:42:48.657Z,1.20
2022-08-11T04:44:19.752Z,0.90
2022-08-11T04:45:28.475Z,1.27
2022-08-11T04:46:54.014Z,1.35
2022-08-11T04:48:35.406Z,1.10
2022-08-11T04:50:39.829Z,1.30
2022-08-11T04:52:19.762Z,1.20
2022-08-11T04:54:09.334Z,1.33
2022-08-11T04:56:24.174Z,1.30
2022-08-11T04:58:09.064Z,1.30
2022-08-11T04:59:39.254Z,1.40
2022-08-11T05:01:31.869Z,1.08
2022-08-11T05:03:11.097Z,1.00
2022-08-11T05:05:00.156Z,1.00
2022-08-11T05:06:30.823Z,1.37
2022-08-11T05:07:59.324Z,1.35
2022-08-11T05:09:16.915Z,1.20
2022-08-11T05:10:39.982Z,1.20
2022-08-11T05:11:48.805Z,1.20
2022-08-11T05:13:22.966Z,1.40
2022-08-11T05:15:08.774Z,1.50
2022-08-11T05:16:32.352Z,1.17
2022-08-11T05:17:58.661Z,1.02
2022-08-11T05:19:23.540Z,1.10
2022-08-11T05:20:45.857Z,1.02
2022-08-11T05:22:14.492Z,1.27
2022-08-11T05:23:43.169Z,1.10
2022-08-11T05:26:42.672Z,1.33
2022-08-11T05:27:11.301Z,1.20
2022-08-11T05:28:57.126Z,1.20
2022-08-11T05:30:30.629Z,1.30
2022-08-11T05:32:00.171Z,1.30
2022-08-11T05:33:27.122Z,1.15
2022-08-11T05:34:50.232Z,1.15
2022-08-11T05:36:13.142Z,1.20
2022-08-11T05:37:33.323Z,1.30
2022-08-11T05:38:56.281Z,1.30
2022-08-11T05:40:27.373Z,1.20
2022-08-11T05:41:50.751Z,1.12
2022-08-11T05:43:19.933Z,1.30
2022-08-11T05:44:41.662Z,1.05
2022-08-11T05:46:15.170Z,1.45
2022-08-11T05:47:46.658Z,1.10
2022-08-11T05:49:08.969Z,1.25
2022-08-11T05:50:33.362Z,1.20
2022-08-11T05:52:05.379Z,1.17
2022-08-11T05:53:40.244Z,1.02
2022-08-11T05:55:10.668Z,1.30
2022-08-11T05:56:20.313Z,1.20
2022-08-11T05:57:45.529Z,1.08
2022-08-11T05:58:55.419Z,1.30
2022-08-11T06:00:05.709Z,1.17
2022-08-11T06:01:14.706Z,1.62
2022-08-11T06:02:18.506Z,1.12
2022-08-11T06:03:28.189Z,1.30
2022-08-11T06:04:31.881Z,1.30
2022-08-11T06:05:43.534Z,1.10
2022-08-11T06:06:59.700Z,1.00
2022-08-11T06:08:05.852Z,1.50
2022-08-11T06:09:09.751Z,1.45
2022-08-11T06:10:13.429Z,1.40
2022-08-11T06:11:18.903Z,1.20
2022-08-11T06:12:43.506Z,1.05
2022-08-11T06:13:46.606Z,1.45
2022-08-11T06:14:57.641Z,1.30
2022-08-11T06:16:06.301Z,1.55
2022-08-11T06:17:11.153Z,1.17
2022-08-11T06:18:14.697Z,1.02
2022-08-11T06:19:21.359Z,1.20
2022-08-11T06:20:25.775Z,1.25
2022-08-11T06:21:36.263Z,1.40
2022-08-11T06:22:42.673Z,1.40
2022-08-11T06:23:45.622Z,1.55
2022-08-11T06:24:57.473Z,1.37
2022-08-11T06:26:01.438Z,1.40
2022-08-11T06:27:12.632Z,1.23
2022-08-11T06:28:21.103Z,1.20
2022-08-11T06:29:37.966Z,1.17
2022-08-11T06:30:49.698Z,1.23
2022-08-11T06:32:01.429Z,1.33
2022-08-11T06:33:08.545Z,1.50
2022-08-11T06:34:35.672Z,1.23
2022-08-11T06:36:13.701Z,1.00
2022-08-11T06:37:24.223Z,1.58
2022-08-11T06:38:30.041Z,1.20
2022-08-11T06:39:54.757Z,1.35
2022-08-11T06:41:22.018Z,0.95
2022-08-11T06:42:52.032Z,1.42
2022-08-11T06:44:05.120Z,1.10
2022-08-11T06:45:35.482Z,1.30
2022-08-11T06:46:43.581Z,1.45
2022-08-11T06:47:47.964Z,1.20
2022-08-11T06:48:51.337Z,1.50
2022-08-11T06:50:16.892Z,1.62
2022-08-11T06:51:20.786Z,1.17
2022-08-11T06:52:35.079Z,1.83
2022-08-11T06:54:04.244Z,1.17
2022-08-11T06:55:12.596Z,1.15
2022-08-11T06:57:26.406Z,1.25
2022-08-11T06:58:44.189Z,1.77
2022-08-11T07:00:08.258Z,1.12
2022-08-11T07:01:13.618Z,1.45
2022-08-11T07:02:22.488Z,1.35
2022-08-11T07:03:28.911Z,1.17
2022-08-11T07:04:43.391Z,1.45
2022-08-11T07:05:52.254Z,1.30
2022-08-11T07:07:41.513Z,1.12
2022-08-11T07:09:47.956Z,1.30
2022-08-11T07:11:37.762Z,1.30
2022-08-11T07:13:01.913Z,1.10
2022-08-11T07:14:26.287Z,1.10
2022-08-11T07:16:12.104Z,1.23
2022-08-11T07:17:09.122Z,1.30
2022-08-11T07:18:50.775Z,1.27
2022-08-11T07:20:17.644Z,1.20
2022-08-11T07:22:01.888Z,1.20
2022-08-11T07:23:28.660Z,1.20
2022-08-11T07:25:01.317Z,1.58
2022-08-11T07:26:25.560Z,1.05
2022-08-11T07:27:55.009Z,1.50
2022-08-11T07:28:59.856Z,1.52
2022-08-11T07:30:09.523Z,1.30
2022-08-11T07:31:36.018Z,1.25
2022-08-11T07:32:51.464Z,1.30
2022-08-11T07:34:18.082Z,1.27
2022-08-11T07:35:32.978Z,1.10
2022-08-11T07:36:40.083Z,0.93
2022-08-11T07:37:51.160Z,1.10
2022-08-11T07:39:11.851Z,1.00
2022-08-11T07:40:16.147Z,1.30
2022-08-11T07:41:22.894Z,1.10
2022-08-11T07:42:31.831Z,1.00
2022-08-11T07:43:35.498Z,1.40
2022-08-11T07:44:59.300Z,1.05
2022-08-11T07:46:23.002Z,1.40
2022-08-11T07:47:46.173Z,1.20
2022-08-11T07:49:09.114Z,1.20
2022-08-11T07:50:32.012Z,1.17
2022-08-11T07:51:55.685Z,1.02
2022-08-11T07:53:00.286Z,1.15
2022-08-11T07:54:16.624Z,1.08
2022-08-11T07:55:50.960Z,1.05
2022-08-11T07:56:54.944Z,1.10
2022-08-11T07:58:20.113Z,1.30
2022-08-11T08:00:00.543Z,1.02
2022-08-11T08:01:24.724Z,1.12
2022-08-11T08:02:46.460Z,1.70
2022-08-11T08:04:08.703Z,1.05
2022-08-11T08:05:30.198Z,1.30
2022-08-11T08:06:53.086Z,0.82
2022-08-11T08:08:17.999Z,1.05
2022-08-11T08:09:40.745Z,1.20
2022-08-11T08:11:02.544Z,1.00
2022-08-11T08:13:47.171Z,1.00
2022-08-11T08:15:13.847Z,1.20
2022-08-11T08:16:35.716Z,1.27
2022-08-11T08:19:19.256Z,1.17
2022-08-11T08:20:28.283Z,1.00
2022-08-11T08:21:32.346Z,1.40
2022-08-11T08:22:38.742Z,1.27
2022-08-11T08:23:45.199Z,1.30
2022-08-11T08:24:49.244Z,1.10
2022-08-11T08:25:52.801Z,1.25
2022-08-11T08:27:00.611Z,1.12
2022-08-11T08:28:07.691Z,0.90
2022-08-11T08:29:29.746Z,1.30
2022-08-11T08:30:47.621Z,1.12
2022-08-11T08:31:53.497Z,1.20
2022-08-11T08:32:57.958Z,1.00
2022-08-11T08:34:00.846Z,1.10
2022-08-11T08:35:05.084Z,1.10
2022-08-11T08:36:17.312Z,1.30
2022-08-11T08:37:45.671Z,1.30
2022-08-11T08:38:49.958Z,1.52
2022-08-11T08:39:54.015Z,1.30
2022-08-11T08:40:57.564Z,1.15
2022-08-11T08:42:04.370Z,1.35
2022-08-11T08:43:15.430Z,1.30
2022-08-11T08:44:37.793Z,1.08
2022-08-11T08:45:44.670Z,1.23
2022-08-11T08:46:55.609Z,1.27
2022-08-11T08:48:05.167Z,1.20
2022-08-11T08:49:11.480Z,1.33
2022-08-11T08:50:21.732Z,1.10
2022-08-11T08:51:58.759Z,1.77
2022-08-11T08:53:05.925Z,1.30
2022-08-11T08:54:14.795Z,1.27
2022-08-11T08:55:21.888Z,1.20
2022-08-11T08:56:28.660Z,1.20
2022-08-11T08:57:39.596Z,1.27
2022-08-11T08:58:51.750Z,1.27
2022-08-11T08:59:55.410Z,1.42
2022-08-11T09:01:00.870Z,1.27
2022-08-11T09:02:06.476Z,1.15
2022-08-11T09:03:39.130Z,1.20
2022-08-11T09:04:36.276Z,1.27
2022-08-11T09:05:40.083Z,1.25
2022-08-11T09:06:44.019Z,1.30
2022-08-11T09:07:55.358Z,1.17
2022-08-11T09:08:58.346Z,1.30
2022-08-11T09:10:01.904Z,1.02
2022-08-11T09:11:24.489Z,1.20
2022-08-11T09:12:46.370Z,1.10
2022-08-11T09:14:05.623Z,1.08
2022-08-11T09:15:12.025Z,1.10
2022-08-11T09:16:16.492Z,1.30
2022-08-11T09:17:21.395Z,1.05
2022-08-11T09:18:24.501Z,1.10
2022-08-11T09:19:27.693Z,1.00
2022-08-11T09:20:34.387Z,1.20
2022-08-11T09:21:48.810Z,1.30
2022-08-11T09:24:59.363Z,1.10
2022-08-11T09:26:21.714Z,1.17
2022-08-11T09:27:29.409Z,1.30
2022-08-11T09:28:33.177Z,1.20
2022-08-11T09:29:39.414Z,1.20
2022-08-11T09:30:43.992Z,1.15
2022-08-11T09:31:49.338Z,0.85
2022-08-11T09:32:58.307Z,1.00
2022-08-11T09:34:02.412Z,1.05
2022-08-11T09:35:06.157Z,1.10
2022-08-11T09:36:28.710Z,0.95
2022-08-11T09:37:54.945Z,0.90
2022-08-11T09:39:19.584Z,1.17
2022-08-11T09:40:32.592Z,1.08
2022-08-11T09:42:01.271Z,1.10
2022-08-11T09:43:21.673Z,0.95
2022-08-11T09:44:47.316Z,1.10
2022-08-11T09:45:54.290Z,1.10
2022-08-11T09:47:00.488Z,0.98
2022-08-11T09:48:05.687Z,1.27
2022-08-11T09:49:08.714Z,1.10
2022-08-11T09:50:12.289Z,1.30
2022-08-11T09:51:17.468Z,1.27
2022-08-11T09:52:22.930Z,1.20
2022-08-11T09:53:36.433Z,1.08
2022-08-11T09:54:48.263Z,1.55
2022-08-11T09:55:52.364Z,1.10
2022-08-11T09:57:23.657Z,1.40
2022-08-11T09:58:41.743Z,1.37
2022-08-11T09:59:53.093Z,1.08
2022-08-11T10:01:27.660Z,1.15
2022-08-11T10:02:31.374Z,1.00
2022-08-11T10:03:40.475Z,1.50
2022-08-11T10:04:47.294Z,1.20
2022-08-11T10:06:20.770Z,1.00
2022-08-11T10:07:51.538Z,1.20
2022-08-11T10:09:08.278Z,0.90
2022-08-11T10:10:32.439Z,1.10
2022-08-11T10:14:34.063Z,1.00
2022-08-11T10:15:59.610Z,0.90
2022-08-11T10:17:09.555Z,1.12
2022-08-11T10:18:37.789Z,1.05
2022-08-11T10:19:43.650Z,1.08
2022-08-11T10:20:50.463Z,0.80
2022-08-11T10:22:14.235Z,1.15
2022-08-11T10:24:00.303Z,1.00
2022-08-11T10:26:43.711Z,1.05
2022-08-11T10:28:17.674Z,1.10
2022-08-11T10:29:37.467Z,1.10
2022-08-11T10:30:58.922Z,1.27
2022-08-11T10:32:21.548Z,1.05
2022-08-11T10:33:58.987Z,1.27
2022-08-11T10:35:02.981Z,1.02
2022-08-11T10:36:16.412Z,1.00
2022-08-11T10:37:24.032Z,1.00
2022-08-11T10:38:52.537Z,1.00
2022-08-11T10:39:56.702Z,1.10
2022-08-11T10:41:19.419Z,0.80
2022-08-11T10:42:57.315Z,0.90
2022-08-11T10:44:03.998Z,0.90
2022-08-11T10:45:27.492Z,0.85
2022-08-11T10:46:50.238Z,0.70
2022-08-11T10:47:57.908Z,1.00
2022-08-11T10:49:02.256Z,0.77
2022-08-11T10:50:29.314Z,0.90
2022-08-11T10:51:53.867Z,1.00
2022-08-11T10:53:19.563Z,0.90
2022-08-11T10:54:42.323Z,1.30
2022-08-11T10:57:34.575Z,1.17
2022-08-11T10:58:49.637Z,0.90
2022-08-11T10:59:55.204Z,0.88
2022-08-11T11:00:59.404Z,1.00
2022-08-11T11:02:02.648Z,1.10
2022-08-11T11:03:22.185Z,1.05
2022-08-11T11:04:39.570Z,1.12
2022-08-11T11:06:27.808Z,1.00
2022-08-11T11:07:17.514Z,0.88
2022-08-11T11:10:02.064Z,0.90
2022-08-11T11:11:07.997Z,1.00
2022-08-11T11:12:39.958Z,0.93
2022-08-11T11:14:08.287Z,1.00
2022-08-11T11:15:32.060Z,1.00
2022-08-11T11:16:50.339Z,0.90
2022-08-11T11:18:04.929Z,0.95
2022-08-11T11:19:10.033Z,0.90
2022-08-11T11:20:34.525Z,1.00
2022-08-11T11:21:42.309Z,0.90
2022-08-11T11:22:52.436Z,0.82
2022-08-11T11:24:20.125Z,0.90
2022-08-11T11:25:44.432Z,0.90
2022-08-11T11:27:21.230Z,0.80
2022-08-11T11:28:41.672Z,0.90
2022-08-11T11:30:02.504Z,0.90
2022-08-11T11:31:22.566Z,1.10
2022-08-11T11:32:36.092Z,1.00
2022-08-11T11:34:06.711Z,0.88
2022-08-11T11:35:52.753Z,0.80
2022-08-11T11:36:59.317Z,0.80
2022-08-11T11:38:04.982Z,0.80
2022-08-11T11:39:09.994Z,1.00
2022-08-11T11:40:21.603Z,1.00
2022-08-11T11:41:32.436Z,0.80
2022-08-11T11:42:35.143Z,1.00
2022-08-11T11:43:38.380Z,0.60
2022-08-11T11:44:44.908Z,0.80
2022-08-11T11:45:47.957Z,0.90
2022-08-11T11:46:52.539Z,0.90
2022-08-11T11:47:59.196Z,1.00
2022-08-11T11:49:15.322Z,0.88
2022-08-11T11:50:38.630Z,0.90
2022-08-11T11:51:42.840Z,0.80
2022-08-11T11:52:48.564Z,1.00
2022-08-11T11:53:52.641Z,0.90
2022-08-11T11:54:57.710Z,0.90
2022-08-11T11:56:02.135Z,0.80
2022-08-11T11:57:25.886Z,0.68
2022-08-11T11:58:48.429Z,0.88
2022-08-11T12:00:12.669Z,1.00
2022-08-11T12:01:20.252Z,0.88
2022-08-11T12:02:23.160Z,0.98
2022-08-11T12:03:29.033Z,0.80
2022-08-11T12:04:32.230Z,1.00
2022-08-11T12:05:36.428Z,0.70
2022-08-11T12:06:40.078Z,0.80
2022-08-11T12:08:05.306Z,0.80
2022-08-11T12:09:18.591Z,0.98
2022-08-11T12:10:21.890Z,0.95
2022-08-11T12:11:46.201Z,0.80
2022-08-11T12:13:07.942Z,0.90
2022-08-11T12:15:13.994Z,0.70
2022-08-11T12:16:34.668Z,0.70
2022-08-11T12:17:39.508Z,1.00
2022-08-11T12:18:46.051Z,0.85
2022-08-11T12:19:50.047Z,1.00
2022-08-11T12:20:53.171Z,0.90
2022-08-11T12:22:16.819Z,0.85
2022-08-11T12:23:38.578Z,0.90
2022-08-11T12:26:27.463Z,0.85
2022-08-11T12:27:31.528Z,0.80
2022-08-11T12:28:35.639Z,0.90
2022-08-11T12:29:41.271Z,0.95
2022-08-11T12:30:50.696Z,0.80
2022-08-11T12:31:58.914Z,0.80
2022-08-11T12:33:01.786Z,0.93
2022-08-11T12:34:06.912Z,0.77
2022-08-11T12:35:09.762Z,0.90
2022-08-11T12:36:16.501Z,0.80
2022-08-11T12:37:32.389Z,1.20
2022-08-11T12:38:36.729Z,1.00
2022-08-11T12:40:16.940Z,1.17
2022-08-11T12:41:52.404Z,0.82
2022-08-11T12:43:21.556Z,1.12
2022-08-11T12:44:47.083Z,0.70
2022-08-11T12:45:58.822Z,0.88
2022-08-11T12:47:02.292Z,1.00
2022-08-11T12:49:00.675Z,0.80
2022-08-11T12:50:22.745Z,0.80
2022-08-11T12:52:11.621Z,0.95
2022-08-11T12:53:13.511Z,1.12
2022-08-11T12:54:28.783Z,0.80
2022-08-11T12:56:03.937Z,0.80
2022-08-11T12:57:36.554Z,0.90
2022-08-11T12:58:42.049Z,0.70
2022-08-11T13:00:04.828Z,0.70
2022-08-11T13:01:28.261Z,0.60
2022-08-11T13:02:50.522Z,0.85
2022-08-11T13:04:13.222Z,0.90
2022-08-11T13:05:16.880Z,0.65
2022-08-11T13:06:23.430Z,0.85
2022-08-11T13:07:50.786Z,0.98
2022-08-11T13:09:01.506Z,0.80
2022-08-11T13:10:06.691Z,0.90
2022-08-11T13:11:55.601Z,0.80
2022-08-11T13:12:59.143Z,1.05
2022-08-11T13:14:03.273Z,1.00
2022-08-11T13:15:07.104Z,0.95
2022-08-11T13:16:11.459Z,0.90
2022-08-11T13:17:40.032Z,0.80
2022-08-11T13:18:47.084Z,0.80
2022-08-11T13:19:52.159Z,0.60
2022-08-11T13:20:57.326Z,0.93
2022-08-11T13:22:01.227Z,1.00
2022-08-11T13:23:04.584Z,0.80
2022-08-11T13:24:07.782Z,0.80
2022-08-11T13:25:15.128Z,0.70
2022-08-11T13:26:20.929Z,0.80
2022-08-11T13:27:28.692Z,0.70
2022-08-11T13:28:32.996Z,0.60
2022-08-11T13:29:36.568Z,0.82
2022-08-11T13:30:59.247Z,1.10
2022-08-11T13:32:02.378Z,0.95
2022-08-11T13:33:07.836Z,0.88
2022-08-11T13:34:11.323Z,1.00
2022-08-11T13:35:20.465Z,0.85
2022-08-11T13:36:27.637Z,0.90
2022-08-11T13:38:17.755Z,0.90
2022-08-11T13:38:56.224Z,0.80
2022-08-11T13:40:02.530Z,1.02
2022-08-11T13:41:25.718Z,0.80
2022-08-11T13:42:29.184Z,1.08
2022-08-11T13:43:38.304Z,0.80
2022-08-11T13:44:42.328Z,0.80
2022-08-11T13:45:48.062Z,0.93
2022-08-11T13:46:55.414Z,0.80
2022-08-11T13:47:59.401Z,0.80
2022-08-11T13:49:03.566Z,0.90
2022-08-11T13:50:08.097Z,0.93
2022-08-11T13:51:34.588Z,0.90
2022-08-11T13:52:42.187Z,0.80
2022-08-11T13:53:47.800Z,1.10
2022-08-11T13:54:53.822Z,0.80
2022-08-11T13:56:00.730Z,0.90
2022-08-11T13:57:09.265Z,0.70
2022-08-11T13:58:20.672Z,0.80
2022-08-11T13:59:51.839Z,0.88
2022-08-11T14:00:55.868Z,0.80
2022-08-11T14:02:28.752Z,1.02
2022-08-11T14:04:28.433Z,0.82
2022-08-11T14:05:13.487Z,0.90
2022-08-11T14:06:20.248Z,0.90
2022-08-11T14:07:27.744Z,0.80
2022-08-11T14:08:40.239Z,0.73
2022-08-11T14:09:46.863Z,0.93
2022-08-11T14:12:22.332Z,0.75
2022-08-11T14:13:09.475Z,0.73
2022-08-11T14:14:17.869Z,0.70
2022-08-11T14:15:27.904Z,0.60
2022-08-11T14:16:37.192Z,0.90
2022-08-11T14:17:48.963Z,0.77
2022-08-11T14:18:57.966Z,0.82
2022-08-11T14:20:38.753Z,0.70
2022-08-11T14:21:49.173Z,1.00
2022-08-11T14:22:57.596Z,0.70
2022-08-11T14:24:02.961Z,0.80
2022-08-11T14:25:06.632Z,0.60
2022-08-11T14:26:29.171Z,0.80
2022-08-11T14:28:25.594Z,0.80
2022-08-11T14:29:13.610Z,0.70
2022-08-11T14:30:35.052Z,0.85
2022-08-11T14:31:41.068Z,0.80
2022-08-11T14:32:53.067Z,0.70
2022-08-11T14:34:03.242Z,1.02
2022-08-11T14:35:06.553Z,0.60
2022-08-11T14:36:11.961Z,0.60
2022-08-11T14:37:19.446Z,0.88
2022-08-11T14:38:22.519Z,1.08
2022-08-11T14:39:28.915Z,0.77
2022-08-11T14:40:50.540Z,0.85
2022-08-11T14:42:15.864Z,0.70
2022-08-11T14:44:02.775Z,0.90
2022-08-11T14:45:57.475Z,1.00
2022-08-11T14:47:23.141Z,0.93
2022-08-11T14:48:28.941Z,0.70
2022-08-11T14:49:35.863Z,0.80
2022-08-11T14:50:39.688Z,0.90
2022-08-11T14:51:46.881Z,0.88
2022-08-11T14:53:01.968Z,0.82
2022-08-11T14:54:23.488Z,0.85
2022-08-11T14:55:47.726Z,0.77
2022-08-11T14:56:50.628Z,0.70
2022-08-11T14:57:56.713Z,0.77
2022-08-11T14:59:01.599Z,0.80
2022-08-11T15:00:07.926Z,0.90
2022-08-11T15:01:30.954Z,1.00
2022-08-11T15:02:56.649Z,0.70
2022-08-11T15:04:35.326Z,0.80
2022-08-11T15:05:24.939Z,0.60
2022-08-11T15:06:28.878Z,0.80
2022-08-11T15:07:35.049Z,0.77
2022-08-11T15:08:55.489Z,0.70
2022-08-11T15:10:14.805Z,0.88
2022-08-11T15:11:38.613Z,0.80
2022-08-11T15:12:45.083Z,0.88
2022-08-11T15:13:51.540Z,0.90
2022-08-11T15:15:13.526Z,0.65
2022-08-11T15:16:34.903Z,0.65
2022-08-11T15:17:43.387Z,0.80
2022-08-11T15:18:46.629Z,0.80
2022-08-11T15:20:09.146Z,0.73
2022-08-11T15:21:30.341Z,0.70
2022-08-11T15:22:51.573Z,0.65
2022-08-11T15:24:12.906Z,0.60
2022-08-11T15:25:16.459Z,0.62
2022-08-11T15:26:48.953Z,0.90
2022-08-11T15:28:13.335Z,0.60
2022-08-11T15:29:39.868Z,0.70
2022-08-11T15:31:02.826Z,0.90
2022-08-11T15:32:24.187Z,0.70
2022-08-11T15:33:47.964Z,0.75
2022-08-11T15:35:19.073Z,0.60
2022-08-11T15:36:42.441Z,0.62
2022-08-11T15:37:48.368Z,0.80
2022-08-11T15:39:07.925Z,0.80
2022-08-11T15:40:39.985Z,0.70
2022-08-11T15:42:28.135Z,0.70
2022-08-11T15:44:01.721Z,0.70
2022-08-11T15:45:28.002Z,0.70
2022-08-11T15:46:33.328Z,0.60
2022-08-11T15:48:05.279Z,0.75
2022-08-11T15:50:11.128Z,0.88
2022-08-11T15:50:56.267Z,0.70
2022-08-11T15:52:08.214Z,0.60
2022-08-11T15:53:33.339Z,0.50
2022-08-11T15:54:42.309Z,0.70
2022-08-11T15:55:46.149Z,0.88
2022-08-11T15:56:52.162Z,0.80
2022-08-11T15:58:16.776Z,0.70
2022-08-11T15:59:41.735Z,0.77
2022-08-11T16:01:09.057Z,0.68
2022-08-11T16:02:18.012Z,0.82
2022-08-11T16:04:06.815Z,0.90
2022-08-11T16:05:14.615Z,0.60
2022-08-11T16:06:50.691Z,0.88
2022-08-11T16:07:57.080Z,0.60
2022-08-11T16:09:04.262Z,0.60
2022-08-11T16:10:21.746Z,0.70
2022-08-11T16:11:26.144Z,0.70
2022-08-11T16:12:33.050Z,0.70
2022-08-11T16:13:42.042Z,0.60
2022-08-11T16:15:09.340Z,0.75
2022-08-11T16:16:17.361Z,0.60
2022-08-11T16:17:23.362Z,0.62
2022-08-11T16:18:41.030Z,0.88
2022-08-11T16:19:49.432Z,0.70
2022-08-11T16:20:57.134Z,0.88
2022-08-11T16:21:59.868Z,0.60
2022-08-11T16:23:08.333Z,0.50
2022-08-11T16:27:06.062Z,0.70
2022-08-11T16:27:06.984Z,0.88
2022-08-11T16:27:12.939Z,0.90
2022-08-11T16:28:19.009Z,0.73
2022-08-11T16:29:25.301Z,0.80
2022-08-11T16:30:29.710Z,0.70
2022-08-11T16:31:33.752Z,0.73
2022-08-11T16:32:40.953Z,0.90
2022-08-11T16:33:49.551Z,0.70
2022-08-11T16:35:41.739Z,0.70
2022-08-11T16:37:03.576Z,0.70
2022-08-11T16:38:27.604Z,0.80
2022-08-11T16:39:31.738Z,0.90
2022-08-11T16:40:35.581Z,0.80
2022-08-11T16:42:00.070Z,0.82
2022-08-11T16:43:26.163Z,0.90
2022-08-11T16:44:48.526Z,0.98
2022-08-11T16:46:10.821Z,0.70
2022-08-11T16:47:18.388Z,0.80
2022-08-11T16:48:43.775Z,0.70
2022-08-11T16:49:52.623Z,0.73
2022-08-11T16:51:00.072Z,0.73
2022-08-11T16:52:11.082Z,0.90
2022-08-11T16:53:17.641Z,0.90
2022-08-11T16:54:20.904Z,0.90
2022-08-11T16:55:52.709Z,1.00
2022-08-11T16:56:54.131Z,0.70
2022-08-11T16:58:19.444Z,1.05
2022-08-11T16:59:36.496Z,0.80
2022-08-11T17:00:41.129Z,0.70
2022-08-11T17:01:49.204Z,0.73
2022-08-11T17:03:12.636Z,0.80
2022-08-11T17:04:50.679Z,0.90
2022-08-11T17:06:13.192Z,0.70
2022-08-11T17:07:41.834Z,0.80
2022-08-11T17:09:11.302Z,0.90
2022-08-11T17:10:51.129Z,0.85
2022-08-11T17:12:19.077Z,1.00
2022-08-11T17:13:28.540Z,0.80
2022-08-11T17:14:52.274Z,1.10
2022-08-11T17:16:12.514Z,0.70
2022-08-11T17:17:20.870Z,1.00
2022-08-11T17:18:43.501Z,0.75
2022-08-11T17:20:38.422Z,0.80
2022-08-11T17:21:21.812Z,0.90
2022-08-11T17:22:45.159Z,1.15
2022-08-11T17:23:52.098Z,0.98
2022-08-11T17:24:57.617Z,0.93
2022-08-11T17:26:04.323Z,0.98
2022-08-11T17:27:09.053Z,0.98
2022-08-11T17:28:13.915Z,1.00
2022-08-11T17:29:21.140Z,0.75
2022-08-11T17:30:45.700Z,0.88
2022-08-11T17:32:08.431Z,0.77
2022-08-11T17:33:31.313Z,1.52
2022-08-11T17:34:52.990Z,1.02
2022-08-11T17:35:56.617Z,0.90
2022-08-11T17:37:00.333Z,0.82
2022-08-11T17:38:13.325Z,0.80
2022-08-11T17:39:16.734Z,0.90
2022-08-11T17:40:26.290Z,0.80
2022-08-11T17:41:47.450Z,0.85
2022-08-11T17:43:11.222Z,0.88
2022-08-11T17:44:33.448Z,1.10
2022-08-11T17:45:54.837Z,0.95
2022-08-11T17:47:15.903Z,0.85
2022-08-11T17:48:28.490Z,1.05